createdAt,value
2022-09-06T00:01:23.573Z,98004.94
2022-09-06T00:03:52.803Z,97996.94
2022-09-06T00:06:22.658Z,98003.06
2022-09-06T00:08:53.396Z,98009.56
2022-09-06T00:11:22.631Z,98004.19
2022-09-06T00:13:51.924Z,98010.91
2022-09-06T00:16:26.322Z,98005.56
2022-09-06T00:18:58.129Z,98003.03
2022-09-06T00:21:30.943Z,98002.16
2022-09-06T00:24:01.819Z,98002.91
2022-09-06T00:26:31.275Z,98003.81
2022-09-06T00:29:00.427Z,97999.13
2022-09-06T00:31:30.072Z,98002.41
2022-09-06T00:33:59.050Z,98004.31
2022-09-06T00:36:28.209Z,98004.50
2022-09-06T00:38:57.237Z,98000.47
2022-09-06T00:41:28.325Z,97995.38
2022-09-06T00:43:57.815Z,98002.69
2022-09-06T00:46:31.028Z,97999.28
2022-09-06T00:49:04.121Z,98001.06
2022-09-06T00:51:34.410Z,97990.19
2022-09-06T00:54:06.045Z,97986.66
2022-09-06T00:56:42.433Z,97989.88
2022-09-06T00:59:11.881Z,97979.28
2022-09-06T01:01:41.069Z,97980.63
2022-09-06T01:04:11.161Z,97977.69
2022-09-06T01:06:53.152Z,97973.69
2022-09-06T01:09:36.214Z,97976.69
2022-09-06T01:12:32.682Z,97965.94
2022-09-06T01:15:22.278Z,97972.16
2022-09-06T01:18:07.850Z,97965.75
2022-09-06T01:20:59.562Z,97958.09
2022-09-06T01:24:22.079Z,97959.78
2022-09-06T01:27:56.586Z,97954.16
2022-09-06T01:30:27.991Z,97950.94
2022-09-06T01:33:02.933Z,97948.38
2022-09-06T01:35:39.768Z,97953.53
2022-09-06T01:38:10.079Z,97951.88
2022-09-06T01:40:39.275Z,97939.69
2022-09-06T01:43:13.221Z,97938.78
2022-09-06T01:45:58.954Z,97939.63
2022-09-06T01:48:41.371Z,97940.09
2022-09-06T01:51:23.061Z,97946.78
2022-09-06T01:54:15.014Z,97943.56
2022-09-06T01:56:58.054Z,97944.94
2022-09-06T01:59:52.571Z,97951.75
2022-09-06T02:02:34.880Z,97936.91
2022-09-06T02:05:10.916Z,97942.72
2022-09-06T02:07:41.301Z,97943.84
2022-09-06T02:10:15.893Z,97940.31
2022-09-06T02:12:50.920Z,97936.28
2022-09-06T02:15:25.573Z,97940.72
2022-09-06T02:18:04.920Z,97944.31
2022-09-06T02:20:39.206Z,97932.69
2022-09-06T02:23:09.696Z,97926.47
2022-09-06T02:25:44.426Z,97922.59
2022-09-06T02:28:14.211Z,97922.41
2022-09-06T02:30:48.987Z,97928.28
2022-09-06T02:33:23.442Z,97930.53
2022-09-06T02:35:57.211Z,97935.66
2022-09-06T02:38:30.238Z,97928.16
2022-09-06T02:40:59.680Z,97936.66
2022-09-06T02:43:30.059Z,97930.84
2022-09-06T02:45:59.473Z,97927.91
2022-09-06T02:48:30.562Z,97930.44
2022-09-06T02:51:00.044Z,97928.34
2022-09-06T02:53:29.039Z,97919.47
2022-09-06T02:55:58.709Z,97924.66
2022-09-06T02:58:29.591Z,97928.53
2022-09-06T03:00:59.006Z,97924.88
2022-09-06T03:03:29.944Z,97929.16
2022-09-06T03:05:59.371Z,97926.53
2022-09-06T03:08:33.710Z,97926.97
2022-09-06T03:11:03.097Z,97928.94
2022-09-06T03:13:32.341Z,97923.56
2022-09-06T03:16:04.090Z,97932.09
2022-09-06T03:18:37.626Z,97930.28
2022-09-06T03:21:07.552Z,97927.00
2022-09-06T03:23:39.566Z,97931.09
2022-09-06T03:26:09.093Z,97932.81
2022-09-06T03:28:38.194Z,97928.34
2022-09-06T03:31:07.664Z,97932.88
2022-09-06T03:33:38.416Z,97925.63
2022-09-06T03:36:08.339Z,97928.41
2022-09-06T03:38:37.167Z,97916.41
2022-09-06T03:41:06.381Z,97922.66
2022-09-06T03:43:35.515Z,97927.53
2022-09-06T03:46:04.550Z,97919.16
2022-09-06T03:48:33.655Z,97927.38
2022-09-06T03:51:04.283Z,97917.66
2022-09-06T03:53:33.385Z,97909.16
2022-09-06T03:56:03.279Z,97914.66
2022-09-06T03:58:34.107Z,97908.50
2022-09-06T04:01:07.951Z,97912.97
2022-09-06T04:03:39.362Z,97919.22
2022-09-06T04:06:10.340Z,97919.97
2022-09-06T04:08:40.069Z,97923.69
2022-09-06T04:11:09.293Z,97933.59
2022-09-06T04:13:38.507Z,97922.22
2022-09-06T04:16:08.524Z,97924.47
2022-09-06T04:18:37.868Z,97919.22
2022-09-06T04:21:07.226Z,97925.84
2022-09-06T04:23:40.085Z,97920.88
2022-09-06T04:26:09.219Z,97922.66
2022-09-06T04:28:38.395Z,97921.88
2022-09-06T04:31:07.543Z,97917.94
2022-09-06T04:33:38.928Z,97911.47
2022-09-06T04:36:11.022Z,97910.28
2022-09-06T04:38:44.374Z,97908.19
2022-09-06T04:41:16.547Z,97905.19
2022-09-06T04:43:45.851Z,97900.94
2022-09-06T04:46:24.236Z,97904.44
2022-09-06T04:48:55.676Z,97901.44
2022-09-06T04:51:26.489Z,97897.94
2022-09-06T04:53:57.071Z,97904.22
2022-09-06T04:56:27.995Z,97900.09
2022-09-06T04:58:57.694Z,97903.16
2022-09-06T05:01:27.344Z,97914.56
2022-09-06T05:03:57.224Z,97916.56
2022-09-06T05:06:26.841Z,97910.94
2022-09-06T05:08:57.236Z,97916.03
2022-09-06T05:11:26.444Z,97918.53
2022-09-06T05:13:55.881Z,97926.44
2022-09-06T05:16:24.862Z,97927.38
2022-09-06T05:18:53.747Z,97924.28
2022-09-06T05:21:22.990Z,97919.69
2022-09-06T05:23:55.394Z,97926.56
2022-09-06T05:26:28.475Z,97915.91
2022-09-06T05:28:57.439Z,97911.81
2022-09-06T05:31:29.238Z,97926.25
2022-09-06T05:33:59.169Z,97926.00
2022-09-06T05:36:29.707Z,97923.44
2022-09-06T05:38:59.776Z,97915.78
2022-09-06T05:41:30.456Z,97925.78
2022-09-06T05:43:59.295Z,97922.09
2022-09-06T05:46:28.411Z,97918.56
2022-09-06T05:49:01.269Z,97921.53
2022-09-06T05:51:31.271Z,97914.88
2022-09-06T05:54:01.024Z,97916.16
2022-09-06T05:56:31.496Z,97912.97
2022-09-06T05:59:00.933Z,97913.97
2022-09-06T06:01:32.059Z,97902.00
2022-09-06T06:04:03.653Z,97912.44
2022-09-06T06:06:35.032Z,97919.09
2022-09-06T06:09:04.413Z,97916.91
2022-09-06T06:11:35.075Z,97923.44
2022-09-06T06:14:04.970Z,97926.03
2022-09-06T06:16:34.210Z,97915.88
2022-09-06T06:19:04.789Z,97918.81
2022-09-06T06:21:35.362Z,97919.69
2022-09-06T06:24:06.354Z,97913.28
2022-09-06T06:26:38.079Z,97918.06
2022-09-06T06:29:09.850Z,97918.00
2022-09-06T06:31:40.326Z,97920.00
2022-09-06T06:34:09.968Z,97904.75
2022-09-06T06:36:39.393Z,97905.34
2022-09-06T06:39:09.791Z,97899.09
2022-09-06T06:41:40.671Z,97905.97
2022-09-06T06:44:09.970Z,97912.66
2022-09-06T06:46:41.741Z,97906.38
2022-09-06T06:49:11.294Z,97906.59
2022-09-06T06:51:40.289Z,97910.59
2022-09-06T06:54:09.352Z,97915.78
2022-09-06T06:56:42.292Z,97920.03
2022-09-06T06:59:11.516Z,97913.75
2022-09-06T07:01:40.692Z,97922.59
2022-09-06T07:04:12.006Z,97911.63
2022-09-06T07:12:32.288Z,97919.59
2022-09-06T07:15:01.565Z,97912.75
2022-09-06T07:17:31.034Z,97925.41
2022-09-06T07:20:15.931Z,97924.66
2022-09-06T07:22:45.699Z,97921.59
2022-09-06T07:25:21.000Z,97920.84
2022-09-06T07:28:03.915Z,97921.31
2022-09-06T07:30:37.488Z,97924.97
2022-09-06T07:33:07.162Z,97919.34
2022-09-06T07:35:36.285Z,97917.84
2022-09-06T07:38:05.723Z,97924.25
2022-09-06T07:40:34.696Z,97921.19
2022-09-06T07:43:06.326Z,97926.22
2022-09-06T07:45:35.722Z,97928.25
2022-09-06T07:48:06.696Z,97934.19
2022-09-06T07:50:54.626Z,97927.00
2022-09-06T07:53:30.797Z,97924.72
2022-09-06T07:56:01.802Z,97922.28
2022-09-06T07:58:32.687Z,97918.03
2022-09-06T08:01:21.752Z,97914.81
2022-09-06T08:03:51.006Z,97915.75
2022-09-06T08:06:20.139Z,97915.59
2022-09-06T08:11:28.067Z,97922.97
2022-09-06T08:14:05.567Z,97919.75
2022-09-06T08:16:38.458Z,97923.72
2022-09-06T08:19:11.016Z,97924.19
2022-09-06T08:21:40.435Z,97920.22
2022-09-06T08:27:07.654Z,97917.75
2022-09-06T08:29:39.997Z,97916.84
2022-09-06T08:32:09.107Z,97914.84
2022-09-06T08:34:38.313Z,97915.88
2022-09-06T08:37:09.679Z,97914.94
2022-09-06T08:39:38.901Z,97922.03
2022-09-06T08:42:09.954Z,97907.19
2022-09-06T08:44:58.870Z,97901.78
2022-09-06T08:47:28.545Z,97907.91
2022-09-06T08:50:03.051Z,97902.78
2022-09-06T08:53:13.190Z,97895.34
2022-09-06T08:55:41.224Z,97905.59
2022-09-06T08:58:39.789Z,97901.78
2022-09-06T09:01:16.807Z,97907.59
2022-09-06T09:03:47.786Z,97903.03
2022-09-06T09:06:16.864Z,97898.31
2022-09-06T09:08:50.981Z,97901.34
2022-09-06T09:11:25.510Z,97895.16
2022-09-06T09:13:59.395Z,97889.78
2022-09-06T09:16:29.978Z,97895.00
2022-09-06T09:19:02.390Z,97889.19
2022-09-06T09:21:35.226Z,97887.22
2022-09-06T09:24:07.631Z,97879.78
2022-09-06T09:26:51.629Z,97884.78
2022-09-06T09:29:26.739Z,97882.38
2022-09-06T09:31:58.986Z,97884.06
2022-09-06T09:35:23.397Z,97876.63
2022-09-06T09:38:09.321Z,97879.72
2022-09-06T09:40:43.675Z,97869.41
2022-09-06T09:43:18.015Z,97870.03
2022-09-06T09:45:47.982Z,97873.25
2022-09-06T09:48:29.845Z,97866.59
2022-09-06T09:51:26.219Z,97862.44
2022-09-06T09:53:58.051Z,97854.31
2022-09-06T09:56:43.609Z,97849.97
2022-09-06T09:59:24.002Z,97846.88
2022-09-06T10:02:00.154Z,97844.28
2022-09-06T10:07:15.024Z,97838.47
2022-09-06T10:09:49.221Z,97840.94
2022-09-06T10:12:20.658Z,97840.53
2022-09-06T10:14:51.053Z,97838.78
2022-09-06T10:17:23.993Z,97837.63
2022-09-06T10:19:54.831Z,97836.50
2022-09-06T10:22:32.642Z,97830.22
2022-09-06T10:25:42.971Z,97836.69
2022-09-06T10:28:32.728Z,97838.16
2022-09-06T10:31:47.563Z,97829.91
2022-09-06T10:35:00.160Z,97829.41
2022-09-06T10:38:03.742Z,97835.47
2022-09-06T10:40:38.541Z,97835.97
2022-09-06T10:43:14.935Z,97844.69
2022-09-06T10:45:55.287Z,97827.63
2022-09-06T10:48:31.387Z,97827.22
2022-09-06T10:51:09.151Z,97830.69
2022-09-06T10:53:47.044Z,97828.63
2022-09-06T10:56:22.341Z,97827.22
2022-09-06T11:02:03.402Z,97828.13
2022-09-06T11:07:34.591Z,97817.19
2022-09-06T11:10:12.323Z,97810.97
2022-09-06T11:12:50.887Z,97812.16
2022-09-06T11:15:22.072Z,97810.19
2022-09-06T11:17:58.349Z,97801.09
2022-09-06T11:20:34.846Z,97799.97
2022-09-06T11:23:37.320Z,97795.97
2022-09-06T11:26:35.816Z,97791.63
2022-09-06T11:29:09.231Z,97790.03
2022-09-06T11:34:56.288Z,97790.81
2022-09-06T11:37:30.778Z,97791.09
2022-09-06T11:40:31.876Z,97777.78
2022-09-06T11:43:17.432Z,97785.59
2022-09-06T11:45:51.091Z,97780.00
2022-09-06T11:48:38.108Z,97768.31
2022-09-06T11:51:11.041Z,97765.91
2022-09-06T11:54:23.458Z,97766.06
2022-09-06T11:56:59.246Z,97767.16
2022-09-06T11:59:45.581Z,97754.50
2022-09-06T12:02:47.612Z,97760.69
2022-09-06T12:05:31.658Z,97751.81
2022-09-06T12:08:35.413Z,97750.47
2022-09-06T12:11:30.222Z,97744.91
2022-09-06T12:14:04.568Z,97731.56
2022-09-06T12:17:38.928Z,97741.91
2022-09-06T12:20:08.829Z,97728.28
2022-09-06T12:23:05.255Z,97727.38
2022-09-06T12:25:57.307Z,97720.63
2022-09-06T12:28:34.774Z,97725.38
2022-09-06T12:31:31.126Z,97714.91
2022-09-06T12:34:01.017Z,97712.91
2022-09-06T12:36:33.238Z,97712.75
2022-09-06T12:39:05.273Z,97703.75
2022-09-06T12:41:43.455Z,97698.25
2022-09-06T12:44:14.817Z,97698.34
2022-09-06T12:46:51.538Z,97694.41
2022-09-06T12:49:23.677Z,97694.97
2022-09-06T12:51:52.768Z,97692.06
2022-09-06T12:54:24.775Z,97696.72
2022-09-06T12:56:55.056Z,97689.69
2022-09-06T12:59:27.292Z,97684.75
2022-09-06T13:02:05.279Z,97678.34
2022-09-06T13:04:42.269Z,97686.66
2022-09-06T13:07:14.776Z,97679.81
2022-09-06T13:09:46.950Z,97679.97
2022-09-06T13:12:26.526Z,97676.91
2022-09-06T13:14:57.078Z,97668.97
2022-09-06T13:17:30.810Z,97676.16
2022-09-06T13:19:59.947Z,97678.16
2022-09-06T13:22:46.073Z,97666.13
2022-09-06T13:25:20.828Z,97671.69
2022-09-06T13:27:51.996Z,97661.31
2022-09-06T13:30:42.159Z,97663.91
2022-09-06T13:33:26.213Z,97665.91
2022-09-06T13:36:09.804Z,97663.34
2022-09-06T13:38:43.599Z,97659.66
2022-09-06T13:41:42.993Z,97658.16
2022-09-06T13:44:31.245Z,97654.03
2022-09-06T13:47:00.522Z,97652.09
2022-09-06T13:49:31.887Z,97656.91
2022-09-06T13:52:03.481Z,97651.91
2022-09-06T13:54:34.195Z,97647.38
2022-09-06T13:57:04.170Z,97644.03
2022-09-06T13:59:33.112Z,97637.91
2022-09-06T14:02:05.371Z,97646.28
2022-09-06T14:04:37.572Z,97635.84
2022-09-06T14:07:08.183Z,97633.47
2022-09-06T14:09:37.629Z,97638.66
2022-09-06T14:12:33.521Z,97631.94
2022-09-06T14:15:02.765Z,97635.88
2022-09-06T14:17:33.020Z,97632.31
2022-09-06T14:20:05.574Z,97643.66
2022-09-06T14:22:34.618Z,97648.44
2022-09-06T14:25:04.010Z,97649.25
2022-09-06T14:27:35.369Z,97650.28
2022-09-06T14:30:05.032Z,97652.34
2022-09-06T14:32:34.568Z,97646.09
2022-09-06T14:35:06.006Z,97646.38
2022-09-06T14:37:35.603Z,97644.72
2022-09-06T14:40:26.150Z,97640.03
2022-09-06T14:42:56.051Z,97646.09
2022-09-06T14:45:26.065Z,97641.38
2022-09-06T14:47:56.270Z,97643.00
2022-09-06T14:50:27.282Z,97644.38
2022-09-06T14:52:56.959Z,97639.50
2022-09-06T14:55:27.805Z,97638.59
2022-09-06T14:57:56.934Z,97639.50
2022-09-06T15:00:27.161Z,97637.69
2022-09-06T15:02:56.774Z,97632.16
2022-09-06T15:05:27.515Z,97633.66
2022-09-06T15:08:04.280Z,97631.78
2022-09-06T15:10:33.898Z,97623.75
2022-09-06T15:13:03.379Z,97629.44
2022-09-06T15:15:32.685Z,97614.50
2022-09-06T15:18:04.933Z,97618.59
2022-09-06T15:20:35.505Z,97624.53
2022-09-06T15:25:55.281Z,97613.81
2022-09-06T15:28:24.318Z,97615.03
2022-09-06T15:30:55.900Z,97621.75
2022-09-06T15:33:25.319Z,97625.00
2022-09-06T15:35:57.575Z,97617.09
2022-09-06T15:38:27.273Z,97618.19
2022-09-06T15:41:08.235Z,97611.44
2022-09-06T15:43:45.308Z,97610.19
2022-09-06T15:46:21.111Z,97609.03
2022-09-06T15:48:54.039Z,97610.31
2022-09-06T15:51:26.444Z,97603.75
2022-09-06T15:53:57.210Z,97603.25
2022-09-06T15:56:26.250Z,97605.44
2022-09-06T15:58:55.469Z,97614.66
2022-09-06T16:01:27.232Z,97620.53
2022-09-06T16:04:03.704Z,97612.94
2022-09-06T16:06:37.825Z,97613.75
2022-09-06T16:09:09.892Z,97620.81
2022-09-06T16:11:39.791Z,97623.38
2022-09-06T16:14:11.969Z,97630.53
2022-09-06T16:16:42.436Z,97634.03
2022-09-06T16:19:13.656Z,97633.78
2022-09-06T16:21:45.004Z,97642.63
2022-09-06T16:24:15.235Z,97630.78
2022-09-06T16:26:46.658Z,97643.31
2022-09-06T16:29:18.417Z,97638.06
2022-09-06T16:31:48.595Z,97639.84
2022-09-06T16:34:18.189Z,97644.19
2022-09-06T16:36:51.107Z,97648.19
2022-09-06T16:39:21.126Z,97640.13
2022-09-06T16:41:50.176Z,97645.97
2022-09-06T16:44:20.753Z,97652.25
2022-09-06T16:46:53.207Z,97653.00
2022-09-06T16:49:22.362Z,97651.22
2022-09-06T16:51:53.320Z,97643.16
2022-09-06T16:54:23.017Z,97635.34
2022-09-06T16:56:52.699Z,97641.41
2022-09-06T16:59:22.105Z,97638.09
2022-09-06T17:01:51.701Z,97626.22
2022-09-06T17:04:21.075Z,97623.41
2022-09-06T17:06:51.690Z,97620.41
2022-09-06T17:09:21.148Z,97617.34
2022-09-06T17:11:50.876Z,97624.94
2022-09-06T17:14:21.249Z,97620.84
2022-09-06T17:17:07.727Z,97621.38
2022-09-06T17:19:38.383Z,97618.84
2022-09-06T17:22:13.668Z,97616.56
2022-09-06T17:24:45.054Z,97607.69
2022-09-06T17:27:14.273Z,97605.59
2022-09-06T17:29:43.314Z,97614.47
2022-09-06T17:32:13.879Z,97611.44
2022-09-06T17:34:45.204Z,97616.66
2022-09-06T17:37:17.244Z,97622.44
2022-09-06T17:39:48.200Z,97625.47
2022-09-06T17:42:17.503Z,97616.91
2022-09-06T17:44:47.063Z,97621.97
2022-09-06T17:47:16.358Z,97629.16
2022-09-06T17:49:45.988Z,97631.69
2022-09-06T17:52:19.285Z,97633.13
2022-09-06T17:54:49.191Z,97636.63
2022-09-06T17:57:20.921Z,97626.53
2022-09-06T17:59:56.266Z,97611.22
2022-09-06T18:02:26.328Z,97615.31
2022-09-06T18:05:02.993Z,97610.75
2022-09-06T18:07:36.981Z,97598.56
2022-09-06T18:10:50.489Z,97605.63
2022-09-06T18:13:21.471Z,97608.97
2022-09-06T18:20:14.793Z,97646.16
2022-09-06T18:22:48.627Z,97665.06
2022-09-06T18:25:20.298Z,97683.81
2022-09-06T18:27:52.706Z,97699.19
2022-09-06T18:30:22.606Z,97729.13
2022-09-06T18:32:51.892Z,97725.94
2022-09-06T18:35:21.528Z,97736.13
2022-09-06T18:37:57.456Z,97731.63
2022-09-06T18:40:29.497Z,97741.47
2022-09-06T18:42:59.774Z,97760.75
2022-09-06T18:45:30.340Z,97756.28
2022-09-06T18:47:59.739Z,97749.06
2022-09-06T18:50:29.222Z,97744.91
2022-09-06T18:53:01.425Z,97747.25
2022-09-06T18:55:32.393Z,97749.47
2022-09-06T18:58:01.581Z,97761.19
2022-09-06T19:00:31.208Z,97770.28
2022-09-06T19:03:00.343Z,97770.53
2022-09-06T19:05:29.665Z,97793.72
2022-09-06T19:08:00.181Z,97795.16
2022-09-06T19:10:29.811Z,97788.59
2022-09-06T19:12:59.462Z,97783.78
2022-09-06T19:17:57.994Z,97761.47
2022-09-06T19:20:27.184Z,97747.84
2022-09-06T19:22:56.294Z,97748.63
2022-09-06T19:25:27.371Z,97742.09
2022-09-06T19:27:56.435Z,97752.34
2022-09-06T19:30:25.778Z,97750.31
2022-09-06T19:32:54.669Z,97759.56
2022-09-06T19:35:24.204Z,97760.50
2022-09-06T19:37:53.414Z,97765.28
2022-09-06T19:40:22.832Z,97759.41
2022-09-06T19:42:53.781Z,97764.00
2022-09-06T19:45:25.696Z,97766.78
2022-09-06T19:47:55.027Z,97773.81
2022-09-06T19:50:27.426Z,97783.31
2022-09-06T19:52:56.647Z,97799.81
2022-09-06T19:55:26.054Z,97794.44
2022-09-06T19:57:57.585Z,97793.88
2022-09-06T20:00:30.389Z,97793.88
2022-09-06T20:03:05.836Z,97781.63
2022-09-06T20:05:35.144Z,97775.47
2022-09-06T20:08:04.408Z,97778.22
2022-09-06T20:10:33.434Z,97788.94
2022-09-06T20:13:04.836Z,97802.06
2022-09-06T20:15:34.100Z,97794.84
2022-09-06T20:18:03.275Z,97796.13
2022-09-06T20:20:34.725Z,97796.13
2022-09-06T20:23:04.891Z,97788.59
2022-09-06T20:25:33.883Z,97773.06
2022-09-06T20:28:05.961Z,97772.81
2022-09-06T20:30:35.720Z,97774.09
2022-09-06T20:33:04.783Z,97786.47
2022-09-06T20:35:33.977Z,97803.31
2022-09-06T20:38:03.368Z,97801.63
2022-09-06T20:40:32.504Z,97793.66
2022-09-06T20:43:02.312Z,97800.09
2022-09-06T20:45:34.289Z,97802.06
2022-09-06T20:48:04.117Z,97802.56
2022-09-06T20:50:33.093Z,97815.41
2022-09-06T20:53:02.244Z,97816.47
2022-09-06T20:55:31.518Z,97814.91
2022-09-06T20:58:00.486Z,97814.91
2022-09-06T21:00:29.608Z,97809.13
2022-09-06T21:03:00.456Z,97808.81
2022-09-06T21:05:29.799Z,97798.13
2022-09-06T21:07:58.946Z,97798.13
2022-09-06T21:10:28.501Z,97803.44
2022-09-06T21:13:00.502Z,97803.28
2022-09-06T21:15:29.789Z,97811.41
2022-09-06T21:18:00.838Z,97819.19
2022-09-06T21:20:30.266Z,97807.59
2022-09-06T21:22:59.484Z,97803.91
2022-09-06T21:25:28.982Z,97803.09
2022-09-06T21:27:57.940Z,97808.50
2022-09-06T21:30:26.969Z,97813.44
2022-09-06T21:32:57.098Z,97820.38
2022-09-06T21:35:27.769Z,97827.88
2022-09-06T21:37:56.877Z,97822.34
2022-09-06T21:40:26.342Z,97822.97
2022-09-06T21:42:55.272Z,97831.56
2022-09-06T21:45:24.134Z,97826.66
2022-09-06T21:47:53.252Z,97838.28
2022-09-06T21:50:22.735Z,97835.69
2022-09-06T21:52:54.241Z,97827.91
2022-09-06T21:55:23.226Z,97824.66
2022-09-06T21:57:52.594Z,97817.34
2022-09-06T22:00:21.742Z,97815.09
2022-09-06T22:02:51.498Z,97814.59
2022-09-06T22:05:20.706Z,97819.00
2022-09-06T22:07:49.845Z,97805.00
2022-09-06T22:10:20.299Z,97797.19
2022-09-06T22:12:49.636Z,97794.13
2022-09-06T22:15:21.614Z,97806.31
2022-09-06T22:17:50.979Z,97794.59
2022-09-06T22:20:21.295Z,97787.09
2022-09-06T22:22:52.015Z,97777.50
2022-09-06T22:25:22.362Z,97778.09
2022-09-06T22:27:54.421Z,97774.16
2022-09-06T22:30:25.728Z,97768.69
2022-09-06T22:32:57.562Z,97771.06
2022-09-06T22:35:26.494Z,97761.03
2022-09-06T22:37:55.680Z,97755.03
2022-09-06T22:40:26.613Z,97766.53
2022-09-06T22:42:56.053Z,97755.69
2022-09-06T22:45:25.237Z,97754.63
2022-09-06T22:47:57.930Z,97752.03
2022-09-06T22:50:27.617Z,97748.50
2022-09-06T22:52:56.887Z,97737.66
2022-09-06T22:55:27.599Z,97737.66
2022-09-06T22:57:56.992Z,97738.09
2022-09-06T23:00:27.530Z,97734.78
2022-09-06T23:02:57.460Z,97729.13
2022-09-06T23:05:26.700Z,97730.06
2022-09-06T23:07:58.022Z,97728.03
2022-09-06T23:10:28.642Z,97719.31
2022-09-06T23:12:58.705Z,97721.81
2022-09-06T23:15:28.742Z,97714.00
2022-09-06T23:17:57.895Z,97713.56
2022-09-06T23:20:27.197Z,97713.88
2022-09-06T23:22:58.907Z,97709.78
2022-09-06T23:25:29.848Z,97706.06
2022-09-06T23:28:00.558Z,97708.22
2022-09-06T23:30:29.525Z,97707.88
2022-09-06T23:32:59.176Z,97716.16
2022-09-06T23:35:28.253Z,97712.19
2022-09-06T23:37:57.781Z,97714.66
2022-09-06T23:40:28.421Z,97714.78
2022-09-06T23:42:57.626Z,97702.59
2022-09-06T23:45:26.859Z,97709.75
2022-09-06T23:47:55.904Z,97710.69
2022-09-06T23:50:27.358Z,97704.56
2022-09-06T23:52:59.730Z,97699.41
2022-09-06T23:55:30.698Z,97697.25
2022-09-06T23:57:59.835Z,97703.38
